createdAt,value
2018-09-02T00:00:33.417Z,0.00
2018-09-02T00:01:33.431Z,0.00
2018-09-02T00:02:33.393Z,0.00
2018-09-02T00:03:33.383Z,0.00
2018-09-02T00:04:33.371Z,0.00
2018-09-02T00:05:33.359Z,0.00
2018-09-02T00:06:33.375Z,0.00
2018-09-02T00:07:33.341Z,0.00
2018-09-02T00:08:33.327Z,0.00
2018-09-02T00:09:33.315Z,0.00
2018-09-02T00:10:33.306Z,0.00
2018-09-02T00:11:33.317Z,0.00
2018-09-02T00:12:33.283Z,0.00
2018-09-02T00:13:33.273Z,0.00
2018-09-02T00:14:33.261Z,0.00
2018-09-02T00:15:33.252Z,0.00
2018-09-02T00:16:33.264Z,0.00
2018-09-02T00:17:33.228Z,0.00
2018-09-02T00:18:33.216Z,0.00
2018-09-02T00:19:33.205Z,0.00
2018-09-02T00:20:33.237Z,0.00
2018-09-02T00:21:33.207Z,0.00
2018-09-02T00:22:33.172Z,0.00
2018-09-02T00:23:33.159Z,0.00
2018-09-02T00:24:33.153Z,0.00
2018-09-02T00:25:33.138Z,0.00
2018-09-02T00:26:33.152Z,0.00
2018-09-02T00:27:33.115Z,0.00
2018-09-02T00:28:33.103Z,0.00
2018-09-02T00:29:33.093Z,0.00
2018-09-02T00:30:33.086Z,0.00
2018-09-02T00:31:33.099Z,0.00
2018-09-02T00:32:33.060Z,0.00
2018-09-02T00:33:33.050Z,0.00
2018-09-02T00:34:33.039Z,0.00
2018-09-02T00:35:33.029Z,0.00
2018-09-02T00:36:33.046Z,0.00
2018-09-02T00:37:33.005Z,0.00
2018-09-02T00:38:32.993Z,0.00
2018-09-02T00:39:32.983Z,0.00
2018-09-02T00:40:32.972Z,0.00
2018-09-02T00:41:32.987Z,0.00
2018-09-02T00:42:32.947Z,0.00
2018-09-02T00:43:32.938Z,0.00
2018-09-02T00:44:32.927Z,0.00
2018-09-02T00:45:32.915Z,0.00
2018-09-02T00:46:32.930Z,0.00
2018-09-02T00:47:32.892Z,0.00
2018-09-02T00:48:32.882Z,0.00
2018-09-02T00:49:32.873Z,0.00
2018-09-02T00:50:32.859Z,0.00
2018-09-02T00:51:32.872Z,0.00
2018-09-02T00:52:32.837Z,0.00
2018-09-02T00:53:32.825Z,0.00
2018-09-02T00:54:32.816Z,0.00
2018-09-02T00:55:32.805Z,0.00
2018-09-02T00:56:32.817Z,0.00
2018-09-02T00:57:32.807Z,0.00
2018-09-02T00:58:32.773Z,0.00
2018-09-02T00:59:32.760Z,0.00
2018-09-02T01:00:32.749Z,0.00
2018-09-02T01:01:32.738Z,0.00
2018-09-02T01:02:32.752Z,0.00
2018-09-02T01:03:32.715Z,0.00
2018-09-02T01:04:32.703Z,0.00
2018-09-02T01:05:32.692Z,0.00
2018-09-02T01:06:32.683Z,0.00
2018-09-02T01:07:32.696Z,0.00
2018-09-02T01:08:32.659Z,0.00
2018-09-02T01:09:32.646Z,0.00
2018-09-02T01:10:32.635Z,0.00
2018-09-02T01:11:32.633Z,0.00
2018-09-02T01:12:32.644Z,0.00
2018-09-02T01:13:32.605Z,0.00
2018-09-02T01:14:32.590Z,0.00
2018-09-02T01:15:32.581Z,0.00
2018-09-02T01:16:32.577Z,0.00
2018-09-02T01:17:32.582Z,0.00
2018-09-02T01:18:32.550Z,0.00
2018-09-02T01:19:32.536Z,0.00
2018-09-02T01:20:32.530Z,0.00
2018-09-02T01:21:32.516Z,0.00
2018-09-02T01:22:32.526Z,0.00
2018-09-02T01:23:32.492Z,0.00
2018-09-02T01:24:32.482Z,0.00
2018-09-02T01:25:32.473Z,0.00
2018-09-02T01:26:32.459Z,0.00
2018-09-02T01:27:32.473Z,0.00
2018-09-02T01:28:32.443Z,0.00
2018-09-02T01:29:32.425Z,0.00
2018-09-02T01:30:32.415Z,0.00
2018-09-02T01:31:32.405Z,0.00
2018-09-02T01:32:32.417Z,0.00
2018-09-02T01:33:32.381Z,0.00
2018-09-02T01:34:32.369Z,0.00
2018-09-02T01:35:32.358Z,0.00
2018-09-02T01:36:32.350Z,0.00
2018-09-02T01:37:32.360Z,0.00
2018-09-02T01:38:32.325Z,0.00
2018-09-02T01:39:32.314Z,0.00
2018-09-02T01:40:32.303Z,0.00
2018-09-02T01:41:32.290Z,0.00
2018-09-02T01:42:32.305Z,0.00
2018-09-02T01:43:32.270Z,0.00
2018-09-02T01:44:32.259Z,0.00
2018-09-02T01:45:32.247Z,0.00
2018-09-02T01:46:32.236Z,0.00
2018-09-02T01:47:32.250Z,0.00
2018-09-02T01:48:32.214Z,0.00
2018-09-02T01:49:32.202Z,0.00
2018-09-02T01:50:32.193Z,0.00
2018-09-02T01:51:32.181Z,0.00
2018-09-02T01:52:32.194Z,0.00
2018-09-02T01:53:32.162Z,0.00
2018-09-02T01:54:32.147Z,0.00
2018-09-02T01:55:32.133Z,0.00
2018-09-02T01:56:32.124Z,0.00
2018-09-02T01:57:32.139Z,0.00
2018-09-02T01:58:32.101Z,0.00
2018-09-02T01:59:32.089Z,0.00
2018-09-02T02:00:32.078Z,0.00
2018-09-02T02:01:32.068Z,0.00
2018-09-02T02:02:32.084Z,0.00
2018-09-02T02:03:32.048Z,0.00
2018-09-02T02:04:32.036Z,0.00
2018-09-02T02:05:32.024Z,0.00
2018-09-02T02:06:32.019Z,0.00
2018-09-02T02:07:32.028Z,0.00
2018-09-02T02:08:31.991Z,0.00
2018-09-02T02:09:31.980Z,0.00
2018-09-02T02:10:31.971Z,0.00
2018-09-02T02:11:31.958Z,0.00
2018-09-02T02:12:31.972Z,0.00
2018-09-02T02:13:31.935Z,0.00
2018-09-02T02:14:31.923Z,0.00
2018-09-02T02:15:31.914Z,0.00
2018-09-02T02:16:31.901Z,0.00
2018-09-02T02:17:31.915Z,0.00
2018-09-02T02:18:31.883Z,0.00
2018-09-02T02:19:31.875Z,0.00
2018-09-02T02:20:31.857Z,0.00
2018-09-02T02:21:31.847Z,0.00
2018-09-02T02:22:31.861Z,0.00
2018-09-02T02:23:31.828Z,0.00
2018-09-02T02:24:31.874Z,0.00
2018-09-02T02:25:31.803Z,0.00
2018-09-02T02:26:31.789Z,0.00
2018-09-02T02:27:31.805Z,0.00
2018-09-02T02:28:31.768Z,0.00
2018-09-02T02:29:31.757Z,0.00
2018-09-02T02:30:31.745Z,0.00
2018-09-02T02:31:31.734Z,0.00
2018-09-02T02:32:31.748Z,0.00
2018-09-02T02:33:31.711Z,0.00
2018-09-02T02:34:31.702Z,0.00
2018-09-02T02:35:31.690Z,0.00
2018-09-02T02:36:31.680Z,0.00
2018-09-02T02:37:31.693Z,0.00
2018-09-02T02:38:31.657Z,0.00
2018-09-02T02:39:31.655Z,0.00
2018-09-02T02:40:31.635Z,0.00
2018-09-02T02:41:31.623Z,0.00
2018-09-02T02:42:31.636Z,0.00
2018-09-02T02:43:31.602Z,0.00
2018-09-02T02:44:31.588Z,0.00
2018-09-02T02:45:31.580Z,0.00
2018-09-02T02:46:31.569Z,0.00
2018-09-02T02:47:31.559Z,0.00
2018-09-02T02:48:31.571Z,0.00
2018-09-02T02:49:31.536Z,0.00
2018-09-02T02:50:31.523Z,0.00
2018-09-02T02:51:31.514Z,0.00
2018-09-02T02:52:31.502Z,0.00
2018-09-02T02:53:31.513Z,0.00
2018-09-02T02:54:31.483Z,0.00
2018-09-02T02:55:31.469Z,0.00
2018-09-02T02:56:31.455Z,0.00
2018-09-02T02:57:31.445Z,0.00
2018-09-02T02:58:31.464Z,0.00
2018-09-02T02:59:31.423Z,0.00
2018-09-02T03:00:31.414Z,0.00
2018-09-02T03:01:31.401Z,0.00
2018-09-02T03:02:31.390Z,0.00
2018-09-02T03:03:31.401Z,0.00
2018-09-02T03:04:31.367Z,0.00
2018-09-02T03:05:31.357Z,0.00
2018-09-02T03:06:31.344Z,0.00
2018-09-02T03:07:31.334Z,0.00
2018-09-02T03:08:31.348Z,0.00
2018-09-02T03:09:31.310Z,0.00
2018-09-02T03:10:31.300Z,0.00
2018-09-02T03:11:31.287Z,0.00
2018-09-02T03:12:31.279Z,0.00
2018-09-02T03:13:31.296Z,0.00
2018-09-02T03:14:31.256Z,0.00
2018-09-02T03:15:31.244Z,0.00
2018-09-02T03:16:31.234Z,0.00
2018-09-02T03:17:31.234Z,0.00
2018-09-02T03:18:31.238Z,0.00
2018-09-02T03:19:31.201Z,0.00
2018-09-02T03:20:31.190Z,0.00
2018-09-02T03:21:31.180Z,0.00
2018-09-02T03:22:31.167Z,0.00
2018-09-02T03:23:31.182Z,0.00
2018-09-02T03:24:31.145Z,0.00
2018-09-02T03:25:31.134Z,0.00
2018-09-02T03:26:31.123Z,0.00
2018-09-02T03:27:31.116Z,0.00
2018-09-02T03:28:31.124Z,0.00
2018-09-02T03:29:31.090Z,0.00
2018-09-02T03:30:31.080Z,0.00
2018-09-02T03:31:31.080Z,0.00
2018-09-02T03:32:31.056Z,0.00
2018-09-02T03:33:31.069Z,0.00
2018-09-02T03:34:31.035Z,0.00
2018-09-02T03:35:31.021Z,0.00
2018-09-02T03:36:31.010Z,0.00
2018-09-02T03:37:31.002Z,0.00
2018-09-02T03:38:31.015Z,0.00
2018-09-02T03:39:30.978Z,0.00
2018-09-02T03:40:30.967Z,0.00
2018-09-02T03:41:30.956Z,0.00
2018-09-02T03:42:30.943Z,0.00
2018-09-02T03:43:30.961Z,0.00
2018-09-02T03:44:30.922Z,0.00
2018-09-02T03:45:30.911Z,0.00
2018-09-02T03:46:30.901Z,0.00
2018-09-02T03:47:30.891Z,0.00
2018-09-02T03:48:30.903Z,0.00
2018-09-02T03:49:30.867Z,0.00
2018-09-02T03:50:30.856Z,0.00
2018-09-02T03:51:30.846Z,0.00
2018-09-02T03:52:30.844Z,0.00
2018-09-02T03:53:30.846Z,0.00
2018-09-02T03:54:30.810Z,0.00
2018-09-02T03:55:30.800Z,0.00
2018-09-02T03:56:30.788Z,0.00
2018-09-02T03:57:30.779Z,0.00
2018-09-02T03:58:30.795Z,0.00
2018-09-02T03:59:30.756Z,0.00
2018-09-02T04:00:30.750Z,0.00
2018-09-02T04:01:30.734Z,0.00
2018-09-02T04:02:30.722Z,0.00
2018-09-02T04:03:30.736Z,0.00
2018-09-02T04:04:30.700Z,0.00
2018-09-02T04:05:30.690Z,0.00
2018-09-02T04:06:30.678Z,0.00
2018-09-02T04:07:30.670Z,0.00
2018-09-02T04:08:30.686Z,0.00
2018-09-02T04:09:30.645Z,0.00
2018-09-02T04:10:30.637Z,0.00
2018-09-02T04:11:30.681Z,0.00
2018-09-02T04:12:30.611Z,0.00
2018-09-02T04:13:30.626Z,0.00
2018-09-02T04:14:30.588Z,0.00
2018-09-02T04:15:30.578Z,0.00
2018-09-02T04:16:30.566Z,0.00
2018-09-02T04:17:30.555Z,0.00
2018-09-02T04:18:31.963Z,0.00
2018-09-02T04:19:30.539Z,0.00
2018-09-02T04:20:30.523Z,0.00
2018-09-02T04:21:30.512Z,0.00
2018-09-02T04:22:30.499Z,4.00
2018-09-02T04:23:30.513Z,4.00
2018-09-02T04:24:30.479Z,4.00
2018-09-02T04:25:30.468Z,4.00
2018-09-02T04:26:30.457Z,4.00
2018-09-02T04:27:30.445Z,4.00
2018-09-02T04:28:30.435Z,8.00
2018-09-02T04:29:30.448Z,8.00
2018-09-02T04:30:30.413Z,12.00
2018-09-02T04:31:30.400Z,12.00
2018-09-02T04:32:30.389Z,16.00
2018-09-02T04:33:30.445Z,20.00
2018-09-02T04:34:30.368Z,20.00
2018-09-02T04:35:30.356Z,24.00
2018-09-02T04:36:30.344Z,28.00
2018-09-02T04:37:30.331Z,32.00
2018-09-02T04:38:30.323Z,40.00
2018-09-02T04:39:30.336Z,48.00
2018-09-02T04:40:30.300Z,52.00
2018-09-02T04:41:30.290Z,60.00
2018-09-02T04:42:30.278Z,68.00
2018-09-02T04:43:30.270Z,76.00
2018-09-02T04:44:30.280Z,88.00
2018-09-02T04:45:30.246Z,96.00
2018-09-02T04:46:30.234Z,104.00
2018-09-02T04:47:30.222Z,116.00
2018-09-02T04:48:30.214Z,124.00
2018-09-02T04:49:30.226Z,136.00
2018-09-02T04:50:30.188Z,148.00
2018-09-02T04:51:30.178Z,160.00
2018-09-02T04:52:30.167Z,172.00
2018-09-02T04:53:30.153Z,188.00
2018-09-02T04:54:30.252Z,200.00
2018-09-02T04:55:30.132Z,216.00
2018-09-02T04:56:30.122Z,228.00
2018-09-02T04:57:30.112Z,240.00
2018-09-02T04:58:30.099Z,260.00
2018-09-02T04:59:30.112Z,276.00
2018-09-02T05:00:30.218Z,292.00
2018-09-02T05:01:30.067Z,308.00
2018-09-02T05:02:30.056Z,320.00
2018-09-02T05:03:30.046Z,336.00
2018-09-02T05:04:30.059Z,356.00
2018-09-02T05:05:30.022Z,372.00
2018-09-02T05:06:30.012Z,388.00
2018-09-02T05:07:30.000Z,408.00
2018-09-02T05:08:29.991Z,424.00
2018-09-02T05:09:30.002Z,444.00
2018-09-02T05:10:29.967Z,460.00
2018-09-02T05:11:29.955Z,480.00
2018-09-02T05:12:29.944Z,500.00
2018-09-02T05:13:29.932Z,520.00
2018-09-02T05:14:29.947Z,540.00
2018-09-02T05:15:29.911Z,556.00
2018-09-02T05:16:29.899Z,572.00
2018-09-02T05:17:29.889Z,592.00
2018-09-02T05:18:29.877Z,612.00
2018-09-02T05:19:32.296Z,632.00
2018-09-02T05:20:29.857Z,652.00
2018-09-02T05:21:29.844Z,668.00
2018-09-02T05:22:29.834Z,688.00
2018-09-02T05:23:29.820Z,708.00
2018-09-02T05:24:29.836Z,732.00
2018-09-02T05:25:29.799Z,752.00
2018-09-02T05:26:29.792Z,772.00
2018-09-02T05:27:29.775Z,796.00
2018-09-02T05:28:29.767Z,812.00
2018-09-02T05:29:29.779Z,840.00
2018-09-02T05:30:29.743Z,856.00
2018-09-02T05:31:29.733Z,880.00
2018-09-02T05:32:29.720Z,904.00
2018-09-02T05:33:29.715Z,928.00
2018-09-02T05:34:29.725Z,952.00
2018-09-02T05:35:29.688Z,976.00
2018-09-02T05:36:29.718Z,996.00
2018-09-02T05:37:29.667Z,1020.00
2018-09-02T05:38:29.660Z,1036.00
2018-09-02T05:39:29.669Z,1060.00
2018-09-02T05:40:29.632Z,1080.00
2018-09-02T05:41:29.622Z,1104.00
2018-09-02T05:42:29.611Z,1124.00
2018-09-02T05:43:29.604Z,1148.00
2018-09-02T05:44:29.612Z,1168.00
2018-09-02T05:45:29.578Z,1192.00
2018-09-02T05:46:29.567Z,1216.00
2018-09-02T05:47:29.554Z,1240.00
2018-09-02T05:48:29.544Z,1256.00
2018-09-02T05:49:29.556Z,1280.00
2018-09-02T05:50:29.525Z,1300.00
2018-09-02T05:51:29.511Z,1324.00
2018-09-02T05:52:29.500Z,1344.00
2018-09-02T05:53:29.488Z,1368.00
2018-09-02T05:54:29.502Z,1388.00
2018-09-02T05:55:29.467Z,1412.00
2018-09-02T05:56:29.455Z,1436.00
2018-09-02T05:57:29.496Z,1468.00
2018-09-02T05:58:29.434Z,1500.00
2018-09-02T05:59:29.447Z,1532.00
2018-09-02T06:00:29.410Z,1560.00
2018-09-02T06:01:29.399Z,1592.00
2018-09-02T06:02:29.387Z,1612.00
2018-09-02T06:03:29.377Z,1632.00
2018-09-02T06:04:29.392Z,1644.00
2018-09-02T06:05:29.353Z,1652.00
2018-09-02T06:06:29.342Z,1660.00
2018-09-02T06:07:29.332Z,1676.00
2018-09-02T06:08:29.322Z,1688.00
2018-09-02T06:09:29.343Z,1704.00
2018-09-02T06:10:29.299Z,1716.00
2018-09-02T06:11:29.287Z,1744.00
2018-09-02T06:12:29.279Z,1764.00
2018-09-02T06:13:29.268Z,1780.00
2018-09-02T06:14:29.256Z,1800.00
2018-09-02T06:15:29.269Z,1800.00
2018-09-02T06:16:29.232Z,1812.00
2018-09-02T06:17:29.221Z,1876.00
2018-09-02T06:18:29.209Z,1896.00
2018-09-02T06:19:29.207Z,1900.00
2018-09-02T06:20:32.659Z,1932.00
2018-09-02T06:21:29.175Z,2332.00
2018-09-02T06:22:29.165Z,2312.00
2018-09-02T06:23:29.152Z,1992.00
2018-09-02T06:24:29.145Z,2012.00
2018-09-02T06:25:29.160Z,2080.00
2018-09-02T06:26:29.124Z,2296.00
2018-09-02T06:27:29.107Z,2344.00
2018-09-02T06:28:29.098Z,2108.00
2018-09-02T06:29:29.091Z,2064.00
2018-09-02T06:30:29.100Z,2088.00
2018-09-02T06:31:29.066Z,2096.00
2018-09-02T06:32:29.054Z,2116.00
2018-09-02T06:33:29.042Z,2128.00
2018-09-02T06:34:29.031Z,2148.00
2018-09-02T06:35:29.067Z,2168.00
2018-09-02T06:36:29.009Z,2196.00
2018-09-02T06:37:28.998Z,2204.00
2018-09-02T06:38:28.988Z,2216.00
2018-09-02T06:39:28.993Z,2236.00
2018-09-02T06:40:28.988Z,2252.00
2018-09-02T06:41:28.952Z,2280.00
2018-09-02T06:42:28.943Z,2300.00
2018-09-02T06:43:28.936Z,2332.00
2018-09-02T06:44:28.924Z,2352.00
2018-09-02T06:45:28.932Z,2376.00
2018-09-02T06:46:28.896Z,2368.00
2018-09-02T06:47:28.886Z,2392.00
2018-09-02T06:48:28.876Z,2372.00
2018-09-02T06:49:28.866Z,2396.00
2018-09-02T06:50:28.880Z,2400.00
2018-09-02T06:51:28.843Z,2424.00
2018-09-02T06:52:28.831Z,2440.00
2018-09-02T06:53:28.822Z,2432.00
2018-09-02T06:54:28.809Z,2488.00
2018-09-02T06:55:28.836Z,2508.00
2018-09-02T06:56:28.786Z,2532.00
2018-09-02T06:57:28.775Z,2536.00
2018-09-02T06:58:28.827Z,2568.00
2018-09-02T06:59:28.755Z,2624.00
2018-09-02T07:00:28.766Z,2616.00
2018-09-02T07:01:28.730Z,2636.00
2018-09-02T07:02:28.719Z,2632.00
2018-09-02T07:03:28.708Z,2624.00
2018-09-02T07:04:28.698Z,2600.00
2018-09-02T07:05:28.712Z,2640.00
2018-09-02T07:06:28.680Z,2636.00
2018-09-02T07:07:28.696Z,2636.00
2018-09-02T07:08:28.651Z,2600.00
2018-09-02T07:09:28.640Z,2616.00
2018-09-02T07:10:28.656Z,2584.00
2018-09-02T07:11:28.620Z,2596.00
2018-09-02T07:12:28.608Z,2600.00
2018-09-02T07:13:28.600Z,2588.00
2018-09-02T07:14:28.720Z,2596.00
2018-09-02T07:15:28.600Z,2596.00
2018-09-02T07:16:28.562Z,2604.00
2018-09-02T07:17:28.550Z,2568.00
2018-09-02T07:18:28.541Z,2628.00
2018-09-02T07:19:28.529Z,2636.00
2018-09-02T07:20:28.545Z,2660.00
2018-09-02T07:21:28.516Z,2660.00
2018-09-02T07:22:28.497Z,2624.00
2018-09-02T07:23:28.489Z,2644.00
2018-09-02T07:24:28.474Z,2660.00
2018-09-02T07:25:28.489Z,2640.00
2018-09-02T07:26:28.452Z,2624.00
2018-09-02T07:27:28.441Z,2628.00
2018-09-02T07:28:28.430Z,2636.00
2018-09-02T07:29:28.416Z,2648.00
2018-09-02T07:30:28.435Z,2648.00
2018-09-02T07:31:28.419Z,2648.00
2018-09-02T07:32:28.384Z,2668.00
2018-09-02T07:33:28.372Z,2680.00
2018-09-02T07:34:28.362Z,2632.00
2018-09-02T07:35:28.376Z,2632.00
2018-09-02T07:36:28.338Z,2644.00
2018-09-02T07:37:28.335Z,2632.00
2018-09-02T07:38:28.316Z,2716.00
2018-09-02T07:39:28.305Z,2720.00
2018-09-02T07:40:28.321Z,2724.00
2018-09-02T07:41:28.286Z,2728.00
2018-09-02T07:42:28.274Z,2776.00
2018-09-02T07:43:28.262Z,2836.00
2018-09-02T07:44:28.251Z,2824.00
2018-09-02T07:45:28.265Z,2724.00
2018-09-02T07:46:28.228Z,2672.00
2018-09-02T07:47:28.218Z,2656.00
2018-09-02T07:48:28.204Z,2668.00
2018-09-02T07:49:28.198Z,2680.00
2018-09-02T07:50:28.211Z,2696.00
2018-09-02T07:51:28.173Z,2696.00
2018-09-02T07:52:28.160Z,2696.00
2018-09-02T07:53:28.151Z,2696.00
2018-09-02T07:54:28.191Z,2700.00
2018-09-02T07:55:28.131Z,2764.00
2018-09-02T07:56:28.142Z,2828.00
2018-09-02T07:57:28.105Z,2804.00
2018-09-02T07:58:28.094Z,2788.00
2018-09-02T07:59:28.085Z,2788.00
2018-09-02T08:00:28.096Z,2784.00
2018-09-02T08:01:28.062Z,2776.00
2018-09-02T08:02:28.051Z,2780.00
2018-09-02T08:03:28.040Z,2792.00
2018-09-02T08:04:28.027Z,2800.00
2018-09-02T08:05:28.019Z,2804.00
2018-09-02T08:06:28.031Z,2804.00
2018-09-02T08:07:27.992Z,2800.00
2018-09-02T08:08:27.986Z,2796.00
2018-09-02T08:09:27.973Z,2792.00
2018-09-02T08:10:27.963Z,2792.00
2018-09-02T08:11:27.976Z,2804.00
2018-09-02T08:12:27.951Z,2812.00
2018-09-02T08:13:27.928Z,2808.00
2018-09-02T08:14:27.919Z,2804.00
2018-09-02T08:15:27.908Z,2820.00
2018-09-02T08:16:27.917Z,2824.00
2018-09-02T08:17:27.884Z,2816.00
2018-09-02T08:18:27.872Z,2784.00
2018-09-02T08:19:27.861Z,2740.00
2018-09-02T08:20:27.850Z,2736.00
2018-09-02T08:21:27.862Z,2736.00
2018-09-02T08:22:27.836Z,2740.00
2018-09-02T08:23:27.816Z,2740.00
2018-09-02T08:24:27.805Z,2724.00
2018-09-02T08:25:27.793Z,2724.00
2018-09-02T08:26:27.829Z,2728.00
2018-09-02T08:27:27.772Z,2724.00
2018-09-02T08:28:27.759Z,2724.00
2018-09-02T08:29:27.747Z,2728.00
2018-09-02T08:30:27.735Z,2732.00
2018-09-02T08:31:27.753Z,2740.00
2018-09-02T08:32:27.717Z,2740.00
2018-09-02T08:33:27.703Z,2744.00
2018-09-02T08:34:27.693Z,2752.00
2018-09-02T08:35:27.683Z,2748.00
2018-09-02T08:36:27.695Z,2748.00
2018-09-02T08:37:27.659Z,2764.00
2018-09-02T08:38:27.648Z,2744.00
2018-09-02T08:39:27.636Z,2756.00
2018-09-02T08:40:27.625Z,2764.00
2018-09-02T08:41:27.641Z,2764.00
2018-09-02T08:42:27.609Z,2736.00
2018-09-02T08:43:27.590Z,2748.00
2018-09-02T08:44:27.583Z,2744.00
2018-09-02T08:45:27.571Z,2720.00
2018-09-02T08:46:27.584Z,2744.00
2018-09-02T08:47:27.549Z,2748.00
2018-09-02T08:48:27.536Z,2752.00
2018-09-02T08:49:27.527Z,2744.00
2018-09-02T08:50:27.599Z,2736.00
2018-09-02T08:51:27.529Z,2740.00
2018-09-02T08:52:27.496Z,2768.00
2018-09-02T08:53:27.482Z,2788.00
2018-09-02T08:54:27.493Z,2792.00
2018-09-02T08:55:27.459Z,2804.00
2018-09-02T08:56:27.474Z,2816.00
2018-09-02T08:57:27.436Z,2816.00
2018-09-02T08:58:27.427Z,2828.00
2018-09-02T08:59:27.414Z,2824.00
2018-09-02T09:00:27.401Z,2808.00
2018-09-02T09:01:27.417Z,2804.00
2018-09-02T09:02:27.385Z,2820.00
2018-09-02T09:03:27.369Z,2828.00
2018-09-02T09:04:27.360Z,2848.00
2018-09-02T09:05:27.348Z,2848.00
2018-09-02T09:06:27.364Z,2840.00
2018-09-02T09:07:27.333Z,2840.00
2018-09-02T09:08:27.559Z,2844.00
2018-09-02T09:09:27.303Z,2844.00
2018-09-02T09:10:27.291Z,2836.00
2018-09-02T09:11:27.308Z,2832.00
2018-09-02T09:12:27.271Z,2832.00
2018-09-02T09:13:27.259Z,2828.00
2018-09-02T09:14:27.246Z,2812.00
2018-09-02T09:15:27.237Z,2816.00
2018-09-02T09:16:27.252Z,2824.00
2018-09-02T09:17:27.213Z,2820.00
2018-09-02T09:18:27.205Z,2812.00
2018-09-02T09:19:27.192Z,2824.00
2018-09-02T09:20:27.184Z,2836.00
2018-09-02T09:21:27.251Z,2840.00
2018-09-02T09:22:27.184Z,2856.00
2018-09-02T09:23:27.148Z,2856.00
2018-09-02T09:24:27.138Z,2844.00
2018-09-02T09:25:27.129Z,2832.00
2018-09-02T09:26:27.141Z,2840.00
2018-09-02T09:27:27.105Z,2856.00
2018-09-02T09:28:27.092Z,2860.00
2018-09-02T09:29:27.082Z,2868.00
2018-09-02T09:30:27.072Z,2860.00
2018-09-02T09:31:27.087Z,2892.00
2018-09-02T09:32:27.077Z,2876.00
2018-09-02T09:33:27.039Z,2896.00
2018-09-02T09:34:27.027Z,2904.00
2018-09-02T09:35:27.017Z,2900.00
2018-09-02T09:36:27.031Z,2916.00
2018-09-02T09:37:26.994Z,2940.00
2018-09-02T09:38:26.985Z,2796.00
2018-09-02T09:39:26.973Z,2932.00
2018-09-02T09:40:26.962Z,2968.00
2018-09-02T09:41:26.951Z,2880.00
2018-09-02T09:42:26.964Z,2940.00
2018-09-02T09:43:26.928Z,2936.00
2018-09-02T09:44:26.924Z,2968.00
2018-09-02T09:45:26.905Z,3020.00
2018-09-02T09:46:26.899Z,3072.00
2018-09-02T09:47:26.910Z,3076.00
2018-09-02T09:48:26.872Z,3208.00
2018-09-02T09:49:26.864Z,3216.00
2018-09-02T09:50:26.850Z,3308.00
2018-09-02T09:51:26.843Z,3232.00
2018-09-02T09:52:26.855Z,3348.00
2018-09-02T09:53:26.819Z,3476.00
2018-09-02T09:54:26.808Z,3848.00
2018-09-02T09:55:26.820Z,3980.00
2018-09-02T09:56:26.788Z,3992.00
2018-09-02T09:57:26.802Z,3864.00
2018-09-02T09:58:26.762Z,3764.00
2018-09-02T09:59:26.753Z,3624.00
2018-09-02T10:00:26.744Z,3264.00
2018-09-02T10:01:26.736Z,3040.00
2018-09-02T10:02:26.745Z,3004.00
2018-09-02T10:03:26.709Z,2928.00
2018-09-02T10:04:26.698Z,2700.00
2018-09-02T10:05:26.690Z,2816.00
2018-09-02T10:06:26.674Z,3312.00
2018-09-02T10:07:26.687Z,3304.00
2018-09-02T10:08:26.654Z,3224.00
2018-09-02T10:09:26.647Z,3332.00
2018-09-02T10:10:26.684Z,3560.00
2018-09-02T10:11:26.620Z,3320.00
2018-09-02T10:12:26.638Z,3604.00
2018-09-02T10:13:26.601Z,3724.00
2018-09-02T10:14:26.590Z,3796.00
2018-09-02T10:15:26.577Z,3716.00
2018-09-02T10:16:26.566Z,3592.00
2018-09-02T10:17:26.582Z,3492.00
2018-09-02T10:18:26.543Z,3480.00
2018-09-02T10:19:26.538Z,3696.00
2018-09-02T10:20:26.521Z,4048.00
2018-09-02T10:21:26.511Z,4332.00
2018-09-02T10:22:26.525Z,4456.00
2018-09-02T10:23:26.489Z,4380.00
2018-09-02T10:24:26.478Z,4460.00
2018-09-02T10:25:26.466Z,4600.00
2018-09-02T10:26:26.455Z,4760.00
2018-09-02T10:27:26.581Z,4832.00
2018-09-02T10:28:26.433Z,5016.00
2018-09-02T10:29:26.422Z,5360.00
2018-09-02T10:30:26.410Z,5876.00
2018-09-02T10:31:26.401Z,6412.00
2018-09-02T10:32:26.420Z,6712.00
2018-09-02T10:33:26.420Z,6752.00
2018-09-02T10:34:26.365Z,6744.00
2018-09-02T10:35:26.355Z,6916.00
2018-09-02T10:36:26.345Z,7232.00
2018-09-02T10:37:26.357Z,7424.00
2018-09-02T10:38:26.323Z,7412.00
2018-09-02T10:39:26.310Z,7336.00
2018-09-02T10:40:26.302Z,7328.00
2018-09-02T10:41:26.330Z,7548.00
2018-09-02T10:42:26.303Z,7808.00
2018-09-02T10:43:26.266Z,8052.00
2018-09-02T10:44:26.256Z,8196.00
2018-09-02T10:45:26.243Z,8344.00
2018-09-02T10:46:26.233Z,8456.00
2018-09-02T10:47:26.255Z,8468.00
2018-09-02T10:48:26.211Z,8452.00
2018-09-02T10:49:26.199Z,8500.00
2018-09-02T10:50:26.188Z,8652.00
2018-09-02T10:51:26.175Z,8812.00
2018-09-02T10:52:26.189Z,8920.00
2018-09-02T10:53:26.158Z,8928.00
2018-09-02T10:54:26.143Z,8776.00
2018-09-02T10:55:26.137Z,8608.00
2018-09-02T10:56:26.138Z,8560.00
2018-09-02T10:57:26.136Z,8612.00
2018-09-02T10:58:26.100Z,8740.00
2018-09-02T10:59:26.147Z,8872.00
2018-09-02T11:00:26.078Z,9076.00
2018-09-02T11:01:26.066Z,9248.00
2018-09-02T11:02:26.081Z,9236.00
2018-09-02T11:03:26.044Z,9076.00
2018-09-02T11:04:26.036Z,8940.00
2018-09-02T11:05:26.023Z,9028.00
2018-09-02T11:06:26.012Z,9032.00
2018-09-02T11:07:26.025Z,9056.00
2018-09-02T11:08:25.991Z,9224.00
2018-09-02T11:09:25.979Z,9388.00
2018-09-02T11:10:25.965Z,9256.00
2018-09-02T11:11:25.956Z,9000.00
2018-09-02T11:12:25.971Z,8752.00
2018-09-02T11:13:25.966Z,8444.00
2018-09-02T11:14:25.924Z,8136.00
2018-09-02T11:15:25.914Z,7824.00
2018-09-02T11:16:25.899Z,7716.00
2018-09-02T11:17:25.895Z,8012.00
2018-09-02T11:18:25.903Z,8288.00
2018-09-02T11:19:25.867Z,8468.00
2018-09-02T11:20:25.856Z,8728.00
2018-09-02T11:21:25.847Z,8740.00
2018-09-02T11:22:25.866Z,8460.00
2018-09-02T11:23:25.823Z,8252.00
2018-09-02T11:24:25.812Z,8156.00
2018-09-02T11:25:25.802Z,7784.00
2018-09-02T11:26:25.791Z,7496.00
2018-09-02T11:27:25.782Z,7416.00
2018-09-02T11:28:25.794Z,7332.00
2018-09-02T11:29:25.757Z,7060.00
2018-09-02T11:30:25.747Z,6820.00
2018-09-02T11:31:25.738Z,6700.00
2018-09-02T11:32:25.727Z,6604.00
2018-09-02T11:33:25.740Z,6572.00
2018-09-02T11:34:25.704Z,6768.00
2018-09-02T11:35:25.694Z,6868.00
2018-09-02T11:36:25.681Z,6624.00
2018-09-02T11:37:25.672Z,6132.00
2018-09-02T11:38:25.684Z,5664.00
2018-09-02T11:39:25.649Z,5524.00
2018-09-02T11:40:25.637Z,5696.00
2018-09-02T11:41:25.627Z,5792.00
2018-09-02T11:42:25.617Z,5900.00
2018-09-02T11:43:25.632Z,6016.00
2018-09-02T11:44:25.595Z,6104.00
2018-09-02T11:45:25.583Z,6312.00
2018-09-02T11:46:25.576Z,6860.00
2018-09-02T11:47:25.559Z,7388.00
2018-09-02T11:48:25.574Z,7784.00
2018-09-02T11:49:25.539Z,8268.00
2018-09-02T11:50:25.527Z,8644.00
2018-09-02T11:51:25.516Z,8864.00
2018-09-02T11:52:25.505Z,8636.00
2018-09-02T11:53:25.519Z,8392.00
2018-09-02T11:54:25.483Z,8032.00
2018-09-02T11:55:25.472Z,7444.00
2018-09-02T11:56:25.484Z,6956.00
2018-09-02T11:57:25.449Z,6764.00
2018-09-02T11:58:25.462Z,6600.00
2018-09-02T11:59:25.427Z,6320.00
2018-09-02T12:00:25.417Z,5984.00
2018-09-02T12:01:25.405Z,5672.00
2018-09-02T12:02:25.394Z,5336.00
2018-09-02T12:03:25.410Z,5048.00
2018-09-02T12:04:25.373Z,4852.00
2018-09-02T12:05:25.362Z,4788.00
2018-09-02T12:06:25.351Z,4852.00
2018-09-02T12:07:25.340Z,5036.00
2018-09-02T12:08:25.352Z,5180.00
2018-09-02T12:09:25.316Z,5264.00
2018-09-02T12:10:25.306Z,5280.00
2018-09-02T12:11:25.297Z,5212.00
2018-09-02T12:12:25.285Z,4984.00
2018-09-02T12:13:25.300Z,4680.00
2018-09-02T12:14:25.265Z,4440.00
2018-09-02T12:15:25.257Z,4372.00
2018-09-02T12:16:25.241Z,4528.00
2018-09-02T12:17:25.230Z,4888.00
2018-09-02T12:18:25.245Z,5304.00
2018-09-02T12:19:25.208Z,5652.00
2018-09-02T12:20:25.198Z,5712.00
2018-09-02T12:21:25.186Z,5572.00
2018-09-02T12:22:25.174Z,5480.00
2018-09-02T12:23:25.189Z,5564.00
2018-09-02T12:24:25.152Z,5836.00
2018-09-02T12:25:25.140Z,6084.00
2018-09-02T12:26:25.131Z,6172.00
2018-09-02T12:27:25.120Z,6248.00
2018-09-02T12:28:25.133Z,6316.00
2018-09-02T12:29:25.099Z,6276.00
2018-09-02T12:30:25.087Z,6180.00
2018-09-02T12:31:25.092Z,6052.00
2018-09-02T12:32:25.067Z,5936.00